sensor_id;sensor_type;location;lat;lon;timestamp;temperature;humidity
65378;SHT31;51982;51.042;13.806;2022-12-04T00:00:21;5.00;85.88
65378;SHT31;51982;51.042;13.806;2022-12-04T00:02:46;5.05;85.87
65378;SHT31;51982;51.042;13.806;2022-12-04T00:05:11;5.05;85.73
65378;SHT31;51982;51.042;13.806;2022-12-04T00:07:37;5.04;85.82
65378;SHT31;51982;51.042;13.806;2022-12-04T00:10:02;5.04;85.74
65378;SHT31;51982;51.042;13.806;2022-12-04T00:12:28;5.12;85.76
65378;SHT31;51982;51.042;13.806;2022-12-04T00:14:53;5.12;85.63
65378;SHT31;51982;51.042;13.806;2022-12-04T00:17:19;5.15;85.56
65378;SHT31;51982;51.042;13.806;2022-12-04T00:19:44;5.12;85.83
65378;SHT31;51982;51.042;13.806;2022-12-04T00:22:09;5.16;85.81
65378;SHT31;51982;51.042;13.806;2022-12-04T00:24:35;5.12;85.86
65378;SHT31;51982;51.042;13.806;2022-12-04T00:27:00;5.02;85.99
65378;SHT31;51982;51.042;13.806;2022-12-04T00:29:25;5.04;86.18
65378;SHT31;51982;51.042;13.806;2022-12-04T00:31:50;4.99;86.16
65378;SHT31;51982;51.042;13.806;2022-12-04T00:34:16;5.04;85.87
65378;SHT31;51982;51.042;13.806;2022-12-04T00:36:42;4.98;86.07
65378;SHT31;51982;51.042;13.806;2022-12-04T00:39:07;4.98;86.10
65378;SHT31;51982;51.042;13.806;2022-12-04T00:41:33;4.95;86.11
65378;SHT31;51982;51.042;13.806;2022-12-04T00:43:59;4.91;86.34
65378;SHT31;51982;51.042;13.806;2022-12-04T00:46:25;4.92;86.12
65378;SHT31;51982;51.042;13.806;2022-12-04T00:48:50;4.95;86.15
65378;SHT31;51982;51.042;13.806;2022-12-04T00:51:18;4.99;85.95
65378;SHT31;51982;51.042;13.806;2022-12-04T00:53:44;5.04;85.83
65378;SHT31;51982;51.042;13.806;2022-12-04T00:56:13;4.98;85.65
65378;SHT31;51982;51.042;13.806;2022-12-04T00:58:39;4.95;85.86
65378;SHT31;51982;51.042;13.806;2022-12-04T01:01:10;4.92;85.96
65378;SHT31;51982;51.042;13.806;2022-12-04T01:03:36;4.91;86.00
65378;SHT31;51982;51.042;13.806;2022-12-04T01:06:02;4.91;86.03
65378;SHT31;51982;51.042;13.806;2022-12-04T01:08:27;4.91;86.12
65378;SHT31;51982;51.042;13.806;2022-12-04T01:10:53;4.93;85.92
65378;SHT31;51982;51.042;13.806;2022-12-04T01:13:18;4.91;85.92
65378;SHT31;51982;51.042;13.806;2022-12-04T01:15:43;4.93;85.95
65378;SHT31;51982;51.042;13.806;2022-12-04T01:18:10;4.89;85.90
65378;SHT31;51982;51.042;13.806;2022-12-04T01:20:36;4.98;85.89
65378;SHT31;51982;51.042;13.806;2022-12-04T01:23:01;5.02;85.72
65378;SHT31;51982;51.042;13.806;2022-12-04T01:25:27;5.04;85.60
65378;SHT31;51982;51.042;13.806;2022-12-04T01:27:52;5.08;85.66
65378;SHT31;51982;51.042;13.806;2022-12-04T01:30:17;5.08;85.73
65378;SHT31;51982;51.042;13.806;2022-12-04T01:32:43;5.16;85.81
65378;SHT31;51982;51.042;13.806;2022-12-04T01:35:08;5.13;85.44
65378;SHT31;51982;51.042;13.806;2022-12-04T01:37:33;5.15;85.43
65378;SHT31;51982;51.042;13.806;2022-12-04T01:39:59;5.04;85.54
65378;SHT31;51982;51.042;13.806;2022-12-04T01:42:25;4.95;86.00
65378;SHT31;51982;51.042;13.806;2022-12-04T01:48:03;5.11;85.64
65378;SHT31;51982;51.042;13.806;2022-12-04T01:50:30;5.11;85.60
65378;SHT31;51982;51.042;13.806;2022-12-04T01:52:55;5.02;85.85
65378;SHT31;51982;51.042;13.806;2022-12-04T01:55:21;5.06;85.86
65378;SHT31;51982;51.042;13.806;2022-12-04T01:57:46;5.08;85.81
65378;SHT31;51982;51.042;13.806;2022-12-04T02:00:14;5.02;85.88
65378;SHT31;51982;51.042;13.806;2022-12-04T02:02:45;5.04;85.82
65378;SHT31;51982;51.042;13.806;2022-12-04T02:05:19;5.00;85.79
65378;SHT31;51982;51.042;13.806;2022-12-04T02:07:46;5.04;85.89
65378;SHT31;51982;51.042;13.806;2022-12-04T02:10:13;5.05;85.84
65378;SHT31;51982;51.042;13.806;2022-12-04T02:15:21;5.02;85.78
65378;SHT31;51982;51.042;13.806;2022-12-04T02:22:59;4.99;85.61
65378;SHT31;51982;51.042;13.806;2022-12-04T02:28:19;4.98;85.54
65378;SHT31;51982;51.042;13.806;2022-12-04T02:30:48;4.85;85.94
65378;SHT31;51982;51.042;13.806;2022-12-04T02:33:21;4.87;85.92
65378;SHT31;51982;51.042;13.806;2022-12-04T02:35:51;4.92;85.87
65378;SHT31;51982;51.042;13.806;2022-12-04T02:38:37;4.85;85.82
65378;SHT31;51982;51.042;13.806;2022-12-04T02:41:16;4.92;85.78
65378;SHT31;51982;51.042;13.806;2022-12-04T02:43:48;4.92;85.86
65378;SHT31;51982;51.042;13.806;2022-12-04T02:48:42;4.96;85.84
65378;SHT31;51982;51.042;13.806;2022-12-04T02:51:10;4.98;85.88
65378;SHT31;51982;51.042;13.806;2022-12-04T02:53:40;5.04;85.79
65378;SHT31;51982;51.042;13.806;2022-12-04T02:56:11;5.09;85.65
65378;SHT31;51982;51.042;13.806;2022-12-04T02:58:43;5.11;85.63
65378;SHT31;51982;51.042;13.806;2022-12-04T03:01:13;5.06;85.68
65378;SHT31;51982;51.042;13.806;2022-12-04T03:03:53;5.04;85.81
65378;SHT31;51982;51.042;13.806;2022-12-04T03:06:20;4.98;85.95
65378;SHT31;51982;51.042;13.806;2022-12-04T03:08:50;5.09;85.82
65378;SHT31;51982;51.042;13.806;2022-12-04T03:11:17;5.11;85.90
65378;SHT31;51982;51.042;13.806;2022-12-04T03:13:47;5.11;85.81
65378;SHT31;51982;51.042;13.806;2022-12-04T03:16:39;5.11;86.00
65378;SHT31;51982;51.042;13.806;2022-12-04T03:19:12;5.04;86.13
65378;SHT31;51982;51.042;13.806;2022-12-04T03:21:43;5.11;86.09
65378;SHT31;51982;51.042;13.806;2022-12-04T03:24:17;5.11;85.86
65378;SHT31;51982;51.042;13.806;2022-12-04T03:26:50;5.13;85.96
65378;SHT31;51982;51.042;13.806;2022-12-04T03:29:21;5.15;85.98
65378;SHT31;51982;51.042;13.806;2022-12-04T03:31:58;5.20;85.81
65378;SHT31;51982;51.042;13.806;2022-12-04T03:34:31;5.20;85.77
65378;SHT31;51982;51.042;13.806;2022-12-04T03:37:02;5.19;85.98
65378;SHT31;51982;51.042;13.806;2022-12-04T03:42:19;5.20;85.74
65378;SHT31;51982;51.042;13.806;2022-12-04T03:45:14;5.19;85.89
65378;SHT31;51982;51.042;13.806;2022-12-04T03:47:46;5.23;85.86
65378;SHT31;51982;51.042;13.806;2022-12-04T03:50:28;5.20;85.77
65378;SHT31;51982;51.042;13.806;2022-12-04T03:53:02;5.19;85.93
65378;SHT31;51982;51.042;13.806;2022-12-04T03:55:41;5.18;85.96
65378;SHT31;51982;51.042;13.806;2022-12-04T03:58:14;5.13;86.05
65378;SHT31;51982;51.042;13.806;2022-12-04T04:00:42;5.19;86.11
65378;SHT31;51982;51.042;13.806;2022-12-04T04:03:14;5.16;86.30
65378;SHT31;51982;51.042;13.806;2022-12-04T04:05:45;5.18;86.29
65378;SHT31;51982;51.042;13.806;2022-12-04T04:08:23;5.20;86.20
65378;SHT31;51982;51.042;13.806;2022-12-04T04:10:53;5.29;86.30
65378;SHT31;51982;51.042;13.806;2022-12-04T04:13:27;5.26;86.43
65378;SHT31;51982;51.042;13.806;2022-12-04T04:16:15;5.23;86.62
65378;SHT31;51982;51.042;13.806;2022-12-04T04:19:01;5.29;86.41
65378;SHT31;51982;51.042;13.806;2022-12-04T04:21:48;5.29;86.46
65378;SHT31;51982;51.042;13.806;2022-12-04T04:24:45;5.25;86.58
65378;SHT31;51982;51.042;13.806;2022-12-04T04:27:12;5.23;86.89
65378;SHT31;51982;51.042;13.806;2022-12-04T04:29:38;5.28;86.80
65378;SHT31;51982;51.042;13.806;2022-12-04T04:32:11;5.30;86.67
65378;SHT31;51982;51.042;13.806;2022-12-04T04:34:56;5.32;86.55
65378;SHT31;51982;51.042;13.806;2022-12-04T04:37:26;5.33;86.74
65378;SHT31;51982;51.042;13.806;2022-12-04T04:42:34;5.29;86.62
65378;SHT31;51982;51.042;13.806;2022-12-04T04:45:06;5.29;86.57
65378;SHT31;51982;51.042;13.806;2022-12-04T04:50:09;5.29;86.69
65378;SHT31;51982;51.042;13.806;2022-12-04T04:52:36;5.26;86.85
65378;SHT31;51982;51.042;13.806;2022-12-04T04:55:04;5.32;86.74
65378;SHT31;51982;51.042;13.806;2022-12-04T04:57:31;5.40;86.68
65378;SHT31;51982;51.042;13.806;2022-12-04T05:00:00;5.43;86.60
65378;SHT31;51982;51.042;13.806;2022-12-04T05:02:26;5.43;86.66
65378;SHT31;51982;51.042;13.806;2022-12-04T05:04:52;5.46;86.65
65378;SHT31;51982;51.042;13.806;2022-12-04T05:07:17;5.49;86.60
65378;SHT31;51982;51.042;13.806;2022-12-04T05:09:42;5.53;86.51
65378;SHT31;51982;51.042;13.806;2022-12-04T05:12:08;5.47;86.64
65378;SHT31;51982;51.042;13.806;2022-12-04T05:14:34;5.49;86.59
65378;SHT31;51982;51.042;13.806;2022-12-04T05:16:59;5.50;86.57
65378;SHT31;51982;51.042;13.806;2022-12-04T05:19:24;5.49;86.53
65378;SHT31;51982;51.042;13.806;2022-12-04T05:22:08;5.50;86.71
65378;SHT31;51982;51.042;13.806;2022-12-04T05:24:33;5.54;86.56
65378;SHT31;51982;51.042;13.806;2022-12-04T05:26:59;5.56;86.78
65378;SHT31;51982;51.042;13.806;2022-12-04T05:29:24;5.54;86.67
65378;SHT31;51982;51.042;13.806;2022-12-04T05:31:49;5.46;86.88
65378;SHT31;51982;51.042;13.806;2022-12-04T05:34:15;5.53;86.85
65378;SHT31;51982;51.042;13.806;2022-12-04T05:36:40;5.54;86.92
65378;SHT31;51982;51.042;13.806;2022-12-04T05:39:05;5.47;86.86
65378;SHT31;51982;51.042;13.806;2022-12-04T05:41:30;5.44;86.90
65378;SHT31;51982;51.042;13.806;2022-12-04T05:43:56;5.43;87.01
65378;SHT31;51982;51.042;13.806;2022-12-04T05:46:21;5.42;86.92
65378;SHT31;51982;51.042;13.806;2022-12-04T05:48:46;5.40;86.81
65378;SHT31;51982;51.042;13.806;2022-12-04T05:51:11;5.44;86.88
65378;SHT31;51982;51.042;13.806;2022-12-04T05:53:37;5.46;86.88
65378;SHT31;51982;51.042;13.806;2022-12-04T05:56:04;5.40;86.93
65378;SHT31;51982;51.042;13.806;2022-12-04T05:58:33;5.36;87.06
65378;SHT31;51982;51.042;13.806;2022-12-04T06:00:59;5.36;87.22
65378;SHT31;51982;51.042;13.806;2022-12-04T06:03:24;5.35;87.23
65378;SHT31;51982;51.042;13.806;2022-12-04T06:05:49;5.42;87.15
65378;SHT31;51982;51.042;13.806;2022-12-04T06:08:14;5.36;87.07
65378;SHT31;51982;51.042;13.806;2022-12-04T06:10:40;5.32;87.28
65378;SHT31;51982;51.042;13.806;2022-12-04T06:13:06;5.33;87.31
65378;SHT31;51982;51.042;13.806;2022-12-04T06:15:38;5.39;87.13
65378;SHT31;51982;51.042;13.806;2022-12-04T06:18:04;5.38;87.31
65378;SHT31;51982;51.042;13.806;2022-12-04T06:20:29;5.42;87.30
65378;SHT31;51982;51.042;13.806;2022-12-04T06:22:54;5.46;87.24
65378;SHT31;51982;51.042;13.806;2022-12-04T06:25:20;5.50;87.15
65378;SHT31;51982;51.042;13.806;2022-12-04T06:27:45;5.54;87.18
65378;SHT31;51982;51.042;13.806;2022-12-04T06:30:10;5.56;87.08
65378;SHT31;51982;51.042;13.806;2022-12-04T06:32:36;5.60;87.12
65378;SHT31;51982;51.042;13.806;2022-12-04T06:35:01;5.60;87.06
65378;SHT31;51982;51.042;13.806;2022-12-04T06:37:27;5.66;86.91
65378;SHT31;51982;51.042;13.806;2022-12-04T06:39:52;5.70;86.75
65378;SHT31;51982;51.042;13.806;2022-12-04T06:42:17;5.66;86.86
65378;SHT31;51982;51.042;13.806;2022-12-04T06:44:42;5.66;86.84
65378;SHT31;51982;51.042;13.806;2022-12-04T06:47:08;5.69;86.84
65378;SHT31;51982;51.042;13.806;2022-12-04T06:49:33;5.71;86.82
65378;SHT31;51982;51.042;13.806;2022-12-04T06:52:00;5.75;86.87
65378;SHT31;51982;51.042;13.806;2022-12-04T06:54:25;5.75;86.92
65378;SHT31;51982;51.042;13.806;2022-12-04T06:56:50;5.74;87.07
65378;SHT31;51982;51.042;13.806;2022-12-04T06:59:16;5.70;87.36
65378;SHT31;51982;51.042;13.806;2022-12-04T07:01:41;5.70;87.38
65378;SHT31;51982;51.042;13.806;2022-12-04T07:04:06;5.69;87.40
65378;SHT31;51982;51.042;13.806;2022-12-04T07:06:36;5.69;87.31
65378;SHT31;51982;51.042;13.806;2022-12-04T07:09:09;5.60;87.30
65378;SHT31;51982;51.042;13.806;2022-12-04T07:11:36;5.59;87.50
65378;SHT31;51982;51.042;13.806;2022-12-04T07:14:02;5.54;87.60
65378;SHT31;51982;51.042;13.806;2022-12-04T07:16:28;5.59;87.54
65378;SHT31;51982;51.042;13.806;2022-12-04T07:18:53;5.59;87.87
65378;SHT31;51982;51.042;13.806;2022-12-04T07:21:21;5.60;87.93
65378;SHT31;51982;51.042;13.806;2022-12-04T07:23:51;5.60;87.89
65378;SHT31;51982;51.042;13.806;2022-12-04T07:26:17;5.57;87.80
65378;SHT31;51982;51.042;13.806;2022-12-04T07:28:42;5.60;87.81
65378;SHT31;51982;51.042;13.806;2022-12-04T07:31:13;5.59;87.32
65378;SHT31;51982;51.042;13.806;2022-12-04T07:33:39;5.63;87.21
65378;SHT31;51982;51.042;13.806;2022-12-04T07:36:06;5.61;87.21
65378;SHT31;51982;51.042;13.806;2022-12-04T07:38:38;5.57;87.22
65378;SHT31;51982;51.042;13.806;2022-12-04T07:41:05;5.61;87.12
65378;SHT31;51982;51.042;13.806;2022-12-04T07:43:32;5.69;87.13
65378;SHT31;51982;51.042;13.806;2022-12-04T07:45:58;5.67;87.49
65378;SHT31;51982;51.042;13.806;2022-12-04T07:48:27;5.80;87.34
65378;SHT31;51982;51.042;13.806;2022-12-04T07:51:07;5.84;87.26
65378;SHT31;51982;51.042;13.806;2022-12-04T07:53:33;5.93;87.56
65378;SHT31;51982;51.042;13.806;2022-12-04T07:55:59;5.94;87.96
65378;SHT31;51982;51.042;13.806;2022-12-04T07:58:25;5.95;88.09
65378;SHT31;51982;51.042;13.806;2022-12-04T08:00:50;6.00;88.27
65378;SHT31;51982;51.042;13.806;2022-12-04T08:03:16;6.02;88.10
65378;SHT31;51982;51.042;13.806;2022-12-04T08:05:41;6.05;88.14
65378;SHT31;51982;51.042;13.806;2022-12-04T08:08:06;5.98;88.05
65378;SHT31;51982;51.042;13.806;2022-12-04T08:10:32;5.90;87.86
65378;SHT31;51982;51.042;13.806;2022-12-04T08:12:57;5.84;87.88
65378;SHT31;51982;51.042;13.806;2022-12-04T08:15:22;5.75;88.00
65378;SHT31;51982;51.042;13.806;2022-12-04T08:17:47;5.77;88.19
65378;SHT31;51982;51.042;13.806;2022-12-04T08:20:13;5.73;88.54
65378;SHT31;51982;51.042;13.806;2022-12-04T08:22:38;5.77;88.56
65378;SHT31;51982;51.042;13.806;2022-12-04T08:25:03;5.84;88.55
65378;SHT31;51982;51.042;13.806;2022-12-04T08:27:29;5.87;88.43
65378;SHT31;51982;51.042;13.806;2022-12-04T08:29:54;5.91;88.43
65378;SHT31;51982;51.042;13.806;2022-12-04T08:32:19;5.93;88.49
65378;SHT31;51982;51.042;13.806;2022-12-04T08:34:49;5.93;88.36
65378;SHT31;51982;51.042;13.806;2022-12-04T08:37:15;6.00;88.31
65378;SHT31;51982;51.042;13.806;2022-12-04T08:39:40;6.02;88.14
65378;SHT31;51982;51.042;13.806;2022-12-04T08:42:05;6.07;88.11
65378;SHT31;51982;51.042;13.806;2022-12-04T08:44:31;6.11;88.12
65378;SHT31;51982;51.042;13.806;2022-12-04T08:46:56;6.15;88.29
65378;SHT31;51982;51.042;13.806;2022-12-04T08:49:21;6.25;89.30
65378;SHT31;51982;51.042;13.806;2022-12-04T08:51:46;6.31;88.54
65378;SHT31;51982;51.042;13.806;2022-12-04T08:54:12;6.34;88.25
65378;SHT31;51982;51.042;13.806;2022-12-04T08:56:37;6.32;87.90
65378;SHT31;51982;51.042;13.806;2022-12-04T08:59:03;6.38;87.87
65378;SHT31;51982;51.042;13.806;2022-12-04T09:01:40;6.38;87.70
65378;SHT31;51982;51.042;13.806;2022-12-04T09:04:06;6.43;87.70
65378;SHT31;51982;51.042;13.806;2022-12-04T09:06:31;6.53;87.56
65378;SHT31;51982;51.042;13.806;2022-12-04T09:09:08;6.52;87.67
65378;SHT31;51982;51.042;13.806;2022-12-04T09:11:34;6.62;88.00
65378;SHT31;51982;51.042;13.806;2022-12-04T09:14:05;6.73;89.86
65378;SHT31;51982;51.042;13.806;2022-12-04T09:16:35;6.89;90.18
65378;SHT31;51982;51.042;13.806;2022-12-04T09:19:15;7.00;90.15
65378;SHT31;51982;51.042;13.806;2022-12-04T09:21:53;7.08;89.95
65378;SHT31;51982;51.042;13.806;2022-12-04T09:25:00;7.16;89.62
65378;SHT31;51982;51.042;13.806;2022-12-04T09:27:46;7.27;89.60
65378;SHT31;51982;51.042;13.806;2022-12-04T09:30:36;7.30;89.55
65378;SHT31;51982;51.042;13.806;2022-12-04T09:35:45;7.37;89.92
65378;SHT31;51982;51.042;13.806;2022-12-04T09:38:11;7.38;89.74
65378;SHT31;51982;51.042;13.806;2022-12-04T09:40:45;7.44;89.57
65378;SHT31;51982;51.042;13.806;2022-12-04T09:43:25;7.45;89.47
65378;SHT31;51982;51.042;13.806;2022-12-04T09:45:56;7.50;89.54
65378;SHT31;51982;51.042;13.806;2022-12-04T09:48:31;7.52;89.32
65378;SHT31;51982;51.042;13.806;2022-12-04T09:51:04;7.54;89.27
65378;SHT31;51982;51.042;13.806;2022-12-04T09:53:56;7.57;89.36
65378;SHT31;51982;51.042;13.806;2022-12-04T09:56:26;7.58;89.39
65378;SHT31;51982;51.042;13.806;2022-12-04T09:59:28;7.61;89.36
65378;SHT31;51982;51.042;13.806;2022-12-04T10:04:38;7.62;89.44
65378;SHT31;51982;51.042;13.806;2022-12-04T10:07:10;7.65;89.31
65378;SHT31;51982;51.042;13.806;2022-12-04T10:12:52;7.68;89.40
65378;SHT31;51982;51.042;13.806;2022-12-04T10:25:54;7.74;89.35
65378;SHT31;51982;51.042;13.806;2022-12-04T10:28:40;7.71;89.18
65378;SHT31;51982;51.042;13.806;2022-12-04T10:31:10;7.72;89.34
65378;SHT31;51982;51.042;13.806;2022-12-04T10:33:41;7.74;89.23
65378;SHT31;51982;51.042;13.806;2022-12-04T10:36:12;7.74;89.18
65378;SHT31;51982;51.042;13.806;2022-12-04T10:38:48;7.78;89.20
65378;SHT31;51982;51.042;13.806;2022-12-04T10:44:19;7.78;89.14
65378;SHT31;51982;51.042;13.806;2022-12-04T10:46:45;7.79;89.21
65378;SHT31;51982;51.042;13.806;2022-12-04T10:49:18;7.78;89.09
65378;SHT31;51982;51.042;13.806;2022-12-04T10:51:45;7.85;89.09
65378;SHT31;51982;51.042;13.806;2022-12-04T10:59:16;7.89;89.04
65378;SHT31;51982;51.042;13.806;2022-12-04T11:01:41;7.93;89.16
65378;SHT31;51982;51.042;13.806;2022-12-04T11:04:15;7.93;88.90
65378;SHT31;51982;51.042;13.806;2022-12-04T11:06:43;7.98;88.83
65378;SHT31;51982;51.042;13.806;2022-12-04T11:09:19;8.02;88.81
65378;SHT31;51982;51.042;13.806;2022-12-04T11:11:47;8.02;88.85
65378;SHT31;51982;51.042;13.806;2022-12-04T11:14:20;8.05;89.01
65378;SHT31;51982;51.042;13.806;2022-12-04T11:16:48;8.09;88.72
65378;SHT31;51982;51.042;13.806;2022-12-04T11:21:51;8.09;88.60
65378;SHT31;51982;51.042;13.806;2022-12-04T11:24:21;8.07;88.51
65378;SHT31;51982;51.042;13.806;2022-12-04T11:26:47;8.10;88.45
65378;SHT31;51982;51.042;13.806;2022-12-04T11:29:16;8.12;88.55
65378;SHT31;51982;51.042;13.806;2022-12-04T11:31:50;8.12;88.43
65378;SHT31;51982;51.042;13.806;2022-12-04T11:34:21;8.17;88.45
65378;SHT31;51982;51.042;13.806;2022-12-04T11:36:53;8.17;88.33
65378;SHT31;51982;51.042;13.806;2022-12-04T14:44:50;8.19;85.34
65378;SHT31;51982;51.042;13.806;2022-12-04T14:50:45;8.06;84.94
65378;SHT31;51982;51.042;13.806;2022-12-04T14:53:42;7.99;85.29
65378;SHT31;51982;51.042;13.806;2022-12-04T15:03:08;7.90;85.30
65378;SHT31;51982;51.042;13.806;2022-12-04T15:05:45;7.88;85.61
65378;SHT31;51982;51.042;13.806;2022-12-04T15:08:15;7.95;85.71
65378;SHT31;51982;51.042;13.806;2022-12-04T15:10:50;7.99;86.02
65378;SHT31;51982;51.042;13.806;2022-12-04T15:13:38;8.07;86.12
65378;SHT31;51982;51.042;13.806;2022-12-04T15:16:08;8.12;86.41
65378;SHT31;51982;51.042;13.806;2022-12-04T15:18:35;8.14;86.49
65378;SHT31;51982;51.042;13.806;2022-12-04T15:21:09;8.10;86.50
65378;SHT31;51982;51.042;13.806;2022-12-04T15:23:38;8.14;86.37
65378;SHT31;51982;51.042;13.806;2022-12-04T15:26:23;8.09;86.03
65378;SHT31;51982;51.042;13.806;2022-12-04T15:29:04;8.10;85.95
65378;SHT31;51982;51.042;13.806;2022-12-04T15:31:42;8.13;86.05
65378;SHT31;51982;51.042;13.806;2022-12-04T15:34:24;8.06;85.79
65378;SHT31;51982;51.042;13.806;2022-12-04T15:37:11;8.07;85.81
65378;SHT31;51982;51.042;13.806;2022-12-04T15:39:53;7.99;85.75
65378;SHT31;51982;51.042;13.806;2022-12-04T15:44:58;8.03;85.63
65378;SHT31;51982;51.042;13.806;2022-12-04T15:56:16;7.96;85.31
65378;SHT31;51982;51.042;13.806;2022-12-04T15:59:02;7.89;85.44
65378;SHT31;51982;51.042;13.806;2022-12-04T16:01:43;7.89;85.61
65378;SHT31;51982;51.042;13.806;2022-12-04T16:04:19;7.82;85.47
65378;SHT31;51982;51.042;13.806;2022-12-04T16:07:00;7.89;85.68
65378;SHT31;51982;51.042;13.806;2022-12-04T16:09:28;7.92;85.57
65378;SHT31;51982;51.042;13.806;2022-12-04T16:12:16;7.96;85.96
65378;SHT31;51982;51.042;13.806;2022-12-04T16:14:47;8.03;86.05
65378;SHT31;51982;51.042;13.806;2022-12-04T16:17:12;8.03;86.09
65378;SHT31;51982;51.042;13.806;2022-12-04T16:19:42;8.07;86.02
65378;SHT31;51982;51.042;13.806;2022-12-04T16:22:13;8.03;85.95
65378;SHT31;51982;51.042;13.806;2022-12-04T16:24:39;8.07;86.03
65378;SHT31;51982;51.042;13.806;2022-12-04T16:27:10;8.09;85.96
65378;SHT31;51982;51.042;13.806;2022-12-04T16:29:36;8.07;86.02
65378;SHT31;51982;51.042;13.806;2022-12-04T16:32:01;8.06;86.00
65378;SHT31;51982;51.042;13.806;2022-12-04T16:34:27;8.12;86.01
65378;SHT31;51982;51.042;13.806;2022-12-04T16:36:52;8.12;86.00
65378;SHT31;51982;51.042;13.806;2022-12-04T16:39:17;8.13;86.01
65378;SHT31;51982;51.042;13.806;2022-12-04T16:41:43;8.14;86.10
65378;SHT31;51982;51.042;13.806;2022-12-04T16:44:15;8.17;86.07
65378;SHT31;51982;51.042;13.806;2022-12-04T16:46:40;8.17;86.02
65378;SHT31;51982;51.042;13.806;2022-12-04T16:49:09;8.19;85.80
65378;SHT31;51982;51.042;13.806;2022-12-04T16:51:35;8.20;85.86
65378;SHT31;51982;51.042;13.806;2022-12-04T16:54:02;8.23;85.81
65378;SHT31;51982;51.042;13.806;2022-12-04T16:56:27;8.20;85.78
65378;SHT31;51982;51.042;13.806;2022-12-04T16:58:52;8.25;85.65
65378;SHT31;51982;51.042;13.806;2022-12-04T17:01:24;8.23;85.59
65378;SHT31;51982;51.042;13.806;2022-12-04T17:03:50;8.25;85.55
65378;SHT31;51982;51.042;13.806;2022-12-04T17:06:16;8.23;85.45
65378;SHT31;51982;51.042;13.806;2022-12-04T17:08:42;8.23;85.49
65378;SHT31;51982;51.042;13.806;2022-12-04T17:11:12;8.22;85.47
65378;SHT31;51982;51.042;13.806;2022-12-04T17:13:38;8.23;85.49
65378;SHT31;51982;51.042;13.806;2022-12-04T17:16:03;8.23;85.46
65378;SHT31;51982;51.042;13.806;2022-12-04T17:18:28;8.23;85.46
65378;SHT31;51982;51.042;13.806;2022-12-04T17:23:58;8.29;85.44
65378;SHT31;51982;51.042;13.806;2022-12-04T17:26:24;8.30;85.41
65378;SHT31;51982;51.042;13.806;2022-12-04T17:28:49;8.30;85.38
65378;SHT31;51982;51.042;13.806;2022-12-04T17:31:20;8.26;85.23
65378;SHT31;51982;51.042;13.806;2022-12-04T17:33:46;8.30;85.30
65378;SHT31;51982;51.042;13.806;2022-12-04T17:36:15;8.32;85.35
65378;SHT31;51982;51.042;13.806;2022-12-04T17:38:41;8.29;85.25
65378;SHT31;51982;51.042;13.806;2022-12-04T17:41:08;8.29;85.22
65378;SHT31;51982;51.042;13.806;2022-12-04T17:43:34;8.30;85.22
65378;SHT31;51982;51.042;13.806;2022-12-04T17:46:00;8.30;85.14
65378;SHT31;51982;51.042;13.806;2022-12-04T17:48:25;8.32;85.09
65378;SHT31;51982;51.042;13.806;2022-12-04T17:51:06;8.32;85.02
65378;SHT31;51982;51.042;13.806;2022-12-04T17:53:32;8.36;85.13
65378;SHT31;51982;51.042;13.806;2022-12-04T17:56:01;8.33;85.04
65378;SHT31;51982;51.042;13.806;2022-12-04T17:58:28;8.33;84.97
65378;SHT31;51982;51.042;13.806;2022-12-04T18:00:54;8.37;84.90
65378;SHT31;51982;51.042;13.806;2022-12-04T18:03:20;8.37;84.91
65378;SHT31;51982;51.042;13.806;2022-12-04T18:05:45;8.29;84.88
65378;SHT31;51982;51.042;13.806;2022-12-04T18:08:10;8.34;84.91
65378;SHT31;51982;51.042;13.806;2022-12-04T18:10:36;8.33;84.91
65378;SHT31;51982;51.042;13.806;2022-12-04T18:13:02;8.33;84.88
65378;SHT31;51982;51.042;13.806;2022-12-04T18:15:27;8.29;84.91
65378;SHT31;51982;51.042;13.806;2022-12-04T18:17:53;8.29;84.92
65378;SHT31;51982;51.042;13.806;2022-12-04T18:20:18;8.30;85.00
65378;SHT31;51982;51.042;13.806;2022-12-04T18:22:43;8.33;85.07
65378;SHT31;51982;51.042;13.806;2022-12-04T18:25:08;8.37;84.99
65378;SHT31;51982;51.042;13.806;2022-12-04T18:27:36;8.40;84.92
65378;SHT31;51982;51.042;13.806;2022-12-04T18:30:02;8.46;84.78
65378;SHT31;51982;51.042;13.806;2022-12-04T18:32:27;8.44;84.76
65378;SHT31;51982;51.042;13.806;2022-12-04T18:34:52;8.47;84.56
65378;SHT31;51982;51.042;13.806;2022-12-04T18:37:18;8.47;84.57
65378;SHT31;51982;51.042;13.806;2022-12-04T18:39:43;8.49;84.57
65378;SHT31;51982;51.042;13.806;2022-12-04T18:42:08;8.54;84.53
65378;SHT31;51982;51.042;13.806;2022-12-04T18:44:33;8.57;84.49
65378;SHT31;51982;51.042;13.806;2022-12-04T18:46:58;8.59;84.39
65378;SHT31;51982;51.042;13.806;2022-12-04T18:49:24;8.56;84.30
65378;SHT31;51982;51.042;13.806;2022-12-04T18:51:49;8.59;84.10
65378;SHT31;51982;51.042;13.806;2022-12-04T18:54:17;8.61;84.14
65378;SHT31;51982;51.042;13.806;2022-12-04T18:56:43;8.64;84.11
65378;SHT31;51982;51.042;13.806;2022-12-04T18:59:23;8.61;83.84
65378;SHT31;51982;51.042;13.806;2022-12-04T19:01:49;8.67;83.92
65378;SHT31;51982;51.042;13.806;2022-12-04T19:04:15;8.68;83.89
65378;SHT31;51982;51.042;13.806;2022-12-04T19:06:44;8.70;83.83
65378;SHT31;51982;51.042;13.806;2022-12-04T19:09:12;8.68;83.74
65378;SHT31;51982;51.042;13.806;2022-12-04T19:11:39;8.71;83.73
65378;SHT31;51982;51.042;13.806;2022-12-04T19:14:06;8.75;83.74
65378;SHT31;51982;51.042;13.806;2022-12-04T19:16:31;8.75;83.75
65378;SHT31;51982;51.042;13.806;2022-12-04T19:18:57;8.77;83.65
65378;SHT31;51982;51.042;13.806;2022-12-04T19:21:25;8.75;83.62
65378;SHT31;51982;51.042;13.806;2022-12-04T19:23:57;8.78;83.67
65378;SHT31;51982;51.042;13.806;2022-12-04T19:26:32;8.77;83.62
65378;SHT31;51982;51.042;13.806;2022-12-04T19:28:58;8.80;83.62
65378;SHT31;51982;51.042;13.806;2022-12-04T19:31:29;8.81;83.67
65378;SHT31;51982;51.042;13.806;2022-12-04T19:33:55;8.81;83.60
65378;SHT31;51982;51.042;13.806;2022-12-04T19:36:22;8.83;83.54
65378;SHT31;51982;51.042;13.806;2022-12-04T19:38:47;8.80;83.60
65378;SHT31;51982;51.042;13.806;2022-12-04T19:41:16;8.80;83.65
65378;SHT31;51982;51.042;13.806;2022-12-04T19:43:43;8.83;83.61
65378;SHT31;51982;51.042;13.806;2022-12-04T19:46:12;8.85;83.50
65378;SHT31;51982;51.042;13.806;2022-12-04T19:48:37;8.84;83.43
65378;SHT31;51982;51.042;13.806;2022-12-04T19:51:09;8.87;83.41
65378;SHT31;51982;51.042;13.806;2022-12-04T19:53:37;8.87;83.21
65378;SHT31;51982;51.042;13.806;2022-12-04T20:00:07;8.85;83.26
65378;SHT31;51982;51.042;13.806;2022-12-04T20:02:59;8.88;83.26
65378;SHT31;51982;51.042;13.806;2022-12-04T20:08:32;8.85;83.24
65378;SHT31;51982;51.042;13.806;2022-12-04T20:11:27;8.84;83.14
65378;SHT31;51982;51.042;13.806;2022-12-04T20:17:38;8.91;83.26